<?xml version="1.0" encoding="UTF-8"?><gpx xmlns="http://www.topografix.com/GPX/1/1" version="1.1" creator="iOrient"><trk><name>GreatWalk. Пеший против Лыжника</name><trkseg><trkpt lat="55.8334133" lon="48.9626383"><time>2023-02-26T06:11:28.367</time></trkpt><trkpt lat="55.8334133" lon="48.9626400"><time>2023-02-26T06:11:29.533</time></trkpt><trkpt lat="55.8334150" lon="48.9627200"><time>2023-02-26T06:11:39.353</time></trkpt><trkpt lat="55.8333700" lon="48.9627100"><time>2023-02-26T06:11:52.300</time></trkpt><trkpt lat="55.8333550" lon="48.9626317"><time>2023-02-26T06:12:05.350</time></trkpt><trkpt lat="55.8333700" lon="48.9625517"><time>2023-02-26T06:13:06.357</time></trkpt><trkpt lat="55.8333917" lon="48.9624650"><time>2023-02-26T06:13:16.363</time></trkpt><trkpt lat="55.8334850" lon="48.9625450"><time>2023-02-26T06:13:22.363</time></trkpt><trkpt lat="55.8334400" lon="48.9625583"><time>2023-02-26T06:13:24.367</time></trkpt><trkpt lat="55.8333900" lon="48.9626217"><time>2023-02-26T06:13:27.363</time></trkpt><trkpt lat="55.8323633" lon="48.9555050"><time>2023-02-26T06:19:24.253</time></trkpt><trkpt lat="55.8323617" lon="48.9555167"><time>2023-02-26T06:19:24.923</time></trkpt><trkpt lat="55.8323500" lon="48.9556300"><time>2023-02-26T06:19:26.337</time></trkpt><trkpt lat="55.8322733" lon="48.9555683"><time>2023-02-26T06:19:28.307</time></trkpt><trkpt lat="55.8322350" lon="48.9554717"><time>2023-02-26T06:19:30.363</time></trkpt><trkpt lat="55.8321867" lon="48.9553867"><time>2023-02-26T06:19:32.377</time></trkpt><trkpt lat="55.8321867" lon="48.9553867"><time>2023-02-26T06:19:33.567</time></trkpt><trkpt lat="55.8321533" lon="48.9553000"><time>2023-02-26T06:19:35.367</time></trkpt><trkpt lat="55.8321133" lon="48.9552000"><time>2023-02-26T06:19:36.860</time></trkpt><trkpt lat="55.8320867" lon="48.9551300"><time>2023-02-26T06:19:38.367</time></trkpt><trkpt lat="55.8320450" lon="48.9550417"><time>2023-02-26T06:19:40.363</time></trkpt><trkpt lat="55.8320150" lon="48.9549583"><time>2023-02-26T06:19:42.363</time></trkpt><trkpt lat="55.8319817" lon="48.9548867"><time>2023-02-26T06:19:44.377</time></trkpt><trkpt lat="55.8319367" lon="48.9548683"><time>2023-02-26T06:19:46.377</time></trkpt><trkpt lat="55.8319367" lon="48.9548683"><time>2023-02-26T06:19:46.397</time></trkpt><trkpt lat="55.8318900" lon="48.9548700"><time>2023-02-26T06:19:48.380</time></trkpt><trkpt lat="55.8318900" lon="48.9548700"><time>2023-02-26T06:19:49.057</time></trkpt><trkpt lat="55.8318283" lon="48.9548917"><time>2023-02-26T06:19:54.353</time></trkpt><trkpt lat="55.8319000" lon="48.9549067"><time>2023-02-26T06:20:03.353</time></trkpt><trkpt lat="55.8319150" lon="48.9548250"><time>2023-02-26T06:20:06.353</time></trkpt><trkpt lat="55.8318867" lon="48.9547450"><time>2023-02-26T06:20:08.347</time></trkpt><trkpt lat="55.8318500" lon="48.9546633"><time>2023-02-26T06:20:10.370</time></trkpt><trkpt lat="55.8318167" lon="48.9545733"><time>2023-02-26T06:20:12.393</time></trkpt><trkpt lat="55.8318167" lon="48.9545733"><time>2023-02-26T06:20:13.297</time></trkpt><trkpt lat="55.8317717" lon="48.9545183"><time>2023-02-26T06:20:15.860</time></trkpt><trkpt lat="55.8317150" lon="48.9543717"><time>2023-02-26T06:20:18.367</time></trkpt><trkpt lat="55.8316517" lon="48.9542633"><time>2023-02-26T06:20:20.360</time></trkpt><trkpt lat="55.8315783" lon="48.9541833"><time>2023-02-26T06:20:22.363</time></trkpt><trkpt lat="55.8315183" lon="48.9541167"><time>2023-02-26T06:20:24.330</time></trkpt><trkpt lat="55.8314617" lon="48.9540350"><time>2023-02-26T06:20:26.370</time></trkpt><trkpt lat="55.8314117" lon="48.9539500"><time>2023-02-26T06:20:28.373</time></trkpt><trkpt lat="55.8313650" lon="48.9538383"><time>2023-02-26T06:20:30.437</time></trkpt><trkpt lat="55.8313200" lon="48.9537350"><time>2023-02-26T06:20:32.370</time></trkpt><trkpt lat="55.8312650" lon="48.9536717"><time>2023-02-26T06:20:34.367</time></trkpt><trkpt lat="55.8311933" lon="48.9536483"><time>2023-02-26T06:20:36.453</time></trkpt><trkpt lat="55.8311350" lon="48.9536500"><time>2023-02-26T06:20:38.363</time></trkpt><trkpt lat="55.8310783" lon="48.9536617"><time>2023-02-26T06:20:40.370</time></trkpt><trkpt lat="55.8310333" lon="48.9536617"><time>2023-02-26T06:20:42.450</time></trkpt><trkpt lat="55.8309817" lon="48.9536917"><time>2023-02-26T06:20:44.367</time></trkpt><trkpt lat="55.8309350" lon="48.9536967"><time>2023-02-26T06:20:46.367</time></trkpt><trkpt lat="55.8308783" lon="48.9536467"><time>2023-02-26T06:20:49.370</time></trkpt><trkpt lat="55.8308450" lon="48.9535850"><time>2023-02-26T06:20:51.387</time></trkpt><trkpt lat="55.8308450" lon="48.9535850"><time>2023-02-26T06:20:53.297</time></trkpt><trkpt lat="55.8307850" lon="48.9535300"><time>2023-02-26T06:20:57.367</time></trkpt><trkpt lat="55.8307300" lon="48.9535333"><time>2023-02-26T06:21:00.367</time></trkpt><trkpt lat="55.8306867" lon="48.9535917"><time>2023-02-26T06:21:04.367</time></trkpt><trkpt lat="55.8306467" lon="48.9536500"><time>2023-02-26T06:21:07.370</time></trkpt><trkpt lat="55.8306050" lon="48.9536950"><time>2023-02-26T06:21:45.650</time></trkpt><trkpt lat="55.8304067" lon="48.9538183"><time>2023-02-26T06:21:46.153</time></trkpt><trkpt lat="55.8303783" lon="48.9537833"><time>2023-02-26T06:21:47.303</time></trkpt><trkpt lat="55.8302250" lon="48.9538550"><time>2023-02-26T06:21:47.830</time></trkpt><trkpt lat="55.8302067" lon="48.9539733"><time>2023-02-26T06:21:48.367</time></trkpt><trkpt lat="55.8301617" lon="48.9540333"><time>2023-02-26T06:21:50.380</time></trkpt><trkpt lat="55.8301617" lon="48.9540333"><time>2023-02-26T06:21:50.400</time></trkpt><trkpt lat="55.8301183" lon="48.9539717"><time>2023-02-26T06:21:58.350</time></trkpt><trkpt lat="55.8301183" lon="48.9539683"><time>2023-02-26T06:21:59.773</time></trkpt><trkpt lat="55.8301050" lon="48.9538917"><time>2023-02-26T06:22:01.850</time></trkpt><trkpt lat="55.8300967" lon="48.9538017"><time>2023-02-26T06:22:05.347</time></trkpt><trkpt lat="55.8300850" lon="48.9537100"><time>2023-02-26T06:22:09.377</time></trkpt><trkpt lat="55.8300083" lon="48.9536617"><time>2023-02-26T06:22:19.357</time></trkpt><trkpt lat="55.8300200" lon="48.9535800"><time>2023-02-26T06:22:30.390</time></trkpt><trkpt lat="55.8300533" lon="48.9536350"><time>2023-02-26T06:22:43.380</time></trkpt><trkpt lat="55.8301067" lon="48.9536367"><time>2023-02-26T06:22:47.380</time></trkpt><trkpt lat="55.8301600" lon="48.9536217"><time>2023-02-26T06:22:50.377</time></trkpt><trkpt lat="55.8302217" lon="48.9535933"><time>2023-02-26T06:22:53.377</time></trkpt><trkpt lat="55.8302783" lon="48.9535733"><time>2023-02-26T06:22:55.380</time></trkpt><trkpt lat="55.8303383" lon="48.9535700"><time>2023-02-26T06:22:57.370</time></trkpt><trkpt lat="55.8303933" lon="48.9535917"><time>2023-02-26T06:22:59.367</time></trkpt><trkpt lat="55.8304600" lon="48.9535583"><time>2023-02-26T06:23:02.380</time></trkpt><trkpt lat="55.8305067" lon="48.9535183"><time>2023-02-26T06:23:04.377</time></trkpt><trkpt lat="55.8305500" lon="48.9534667"><time>2023-02-26T06:23:06.397</time></trkpt><trkpt lat="55.8307300" lon="48.9521217"><time>2023-02-26T06:24:23.347</time></trkpt><trkpt lat="55.8308650" lon="48.9513300"><time>2023-02-26T06:24:23.840</time></trkpt><trkpt lat="55.8308950" lon="48.9510683"><time>2023-02-26T06:24:24.303</time></trkpt><trkpt lat="55.8308783" lon="48.9509417"><time>2023-02-26T06:24:24.807</time></trkpt><trkpt lat="55.8309183" lon="48.9508800"><time>2023-02-26T06:24:43.360</time></trkpt><trkpt lat="55.8309567" lon="48.9508250"><time>2023-02-26T06:24:47.353</time></trkpt><trkpt lat="55.8309983" lon="48.9507883"><time>2023-02-26T06:24:51.363</time></trkpt><trkpt lat="55.8309983" lon="48.9507883"><time>2023-02-26T06:24:52.053</time></trkpt><trkpt lat="55.8310167" lon="48.9506917"><time>2023-02-26T06:24:54.860</time></trkpt><trkpt lat="55.8310767" lon="48.9506300"><time>2023-02-26T06:24:57.350</time></trkpt><trkpt lat="55.8311217" lon="48.9505800"><time>2023-02-26T06:24:59.357</time></trkpt><trkpt lat="55.8311600" lon="48.9505367"><time>2023-02-26T06:25:01.353</time></trkpt><trkpt lat="55.8311967" lon="48.9504550"><time>2023-02-26T06:25:03.357</time></trkpt><trkpt lat="55.8312183" lon="48.9503850"><time>2023-02-26T06:25:05.363</time></trkpt><trkpt lat="55.8312500" lon="48.9503100"><time>2023-02-26T06:25:07.363</time></trkpt><trkpt lat="55.8312700" lon="48.9502300"><time>2023-02-26T06:25:09.363</time></trkpt><trkpt lat="55.8312983" lon="48.9501417"><time>2023-02-26T06:25:11.360</time></trkpt><trkpt lat="55.8313283" lon="48.9500633"><time>2023-02-26T06:25:13.347</time></trkpt><trkpt lat="55.8313467" lon="48.9499667"><time>2023-02-26T06:25:16.353</time></trkpt><trkpt lat="55.8313967" lon="48.9499750"><time>2023-02-26T06:25:24.370</time></trkpt><trkpt lat="55.8314633" lon="48.9500133"><time>2023-02-26T06:25:29.313</time></trkpt><trkpt lat="55.8315100" lon="48.9500350"><time>2023-02-26T06:25:31.303</time></trkpt><trkpt lat="55.8315617" lon="48.9500417"><time>2023-02-26T06:25:33.360</time></trkpt><trkpt lat="55.8316200" lon="48.9500233"><time>2023-02-26T06:25:36.377</time></trkpt><trkpt lat="55.8316667" lon="48.9499683"><time>2023-02-26T06:25:38.360</time></trkpt><trkpt lat="55.8316950" lon="48.9498967"><time>2023-02-26T06:25:40.373</time></trkpt><trkpt lat="55.8317033" lon="48.9498067"><time>2023-02-26T06:25:42.373</time></trkpt><trkpt lat="55.8317133" lon="48.9497267"><time>2023-02-26T06:25:44.363</time></trkpt><trkpt lat="55.8317200" lon="48.9496400"><time>2023-02-26T06:25:46.373</time></trkpt><trkpt lat="55.8316867" lon="48.9495550"><time>2023-02-26T06:25:49.367</time></trkpt><trkpt lat="55.8316433" lon="48.9495250"><time>2023-02-26T06:25:51.337</time></trkpt><trkpt lat="55.8315950" lon="48.9495150"><time>2023-02-26T06:25:54.373</time></trkpt><trkpt lat="55.8315583" lon="48.9494600"><time>2023-02-26T06:26:03.367</time></trkpt><trkpt lat="55.8315583" lon="48.9493700"><time>2023-02-26T06:26:10.363</time></trkpt><trkpt lat="55.8315217" lon="48.9493083"><time>2023-02-26T06:26:15.370</time></trkpt><trkpt lat="55.8314883" lon="48.9492500"><time>2023-02-26T06:26:20.387</time></trkpt><trkpt lat="55.8314883" lon="48.9492500"><time>2023-02-26T06:26:21.063</time></trkpt><trkpt lat="55.8314517" lon="48.9491950"><time>2023-02-26T06:26:24.860</time></trkpt><trkpt lat="55.8314067" lon="48.9491250"><time>2023-02-26T06:26:28.360</time></trkpt><trkpt lat="55.8313850" lon="48.9490517"><time>2023-02-26T06:26:32.360</time></trkpt><trkpt lat="55.8313450" lon="48.9489900"><time>2023-02-26T06:26:40.360</time></trkpt><trkpt lat="55.8313233" lon="48.9489167"><time>2023-02-26T06:26:46.357</time></trkpt><trkpt lat="55.8313000" lon="48.9488467"><time>2023-02-26T06:26:53.373</time></trkpt><trkpt lat="55.8312617" lon="48.9487783"><time>2023-02-26T06:27:09.343</time></trkpt><trkpt lat="55.8312467" lon="48.9486900"><time>2023-02-26T06:27:14.337</time></trkpt><trkpt lat="55.8312250" lon="48.9486083"><time>2023-02-26T06:27:19.373</time></trkpt><trkpt lat="55.8312117" lon="48.9485167"><time>2023-02-26T06:27:23.370</time></trkpt><trkpt lat="55.8311950" lon="48.9484150"><time>2023-02-26T06:27:28.387</time></trkpt><trkpt lat="55.8311950" lon="48.9484183"><time>2023-02-26T06:27:29.790</time></trkpt><trkpt lat="55.8311650" lon="48.9483500"><time>2023-02-26T06:27:34.370</time></trkpt><trkpt lat="55.8311367" lon="48.9482517"><time>2023-02-26T06:27:37.373</time></trkpt><trkpt lat="55.8311150" lon="48.9481717"><time>2023-02-26T06:27:41.367</time></trkpt><trkpt lat="55.8310750" lon="48.9481200"><time>2023-02-26T06:27:47.373</time></trkpt><trkpt lat="55.8310817" lon="48.9480317"><time>2023-02-26T06:27:50.297</time></trkpt><trkpt lat="55.8310700" lon="48.9479367"><time>2023-02-26T06:27:56.360</time></trkpt><trkpt lat="55.8310500" lon="48.9480233"><time>2023-02-26T06:28:00.357</time></trkpt><trkpt lat="55.8310783" lon="48.9481083"><time>2023-02-26T06:28:04.363</time></trkpt><trkpt lat="55.8311100" lon="48.9481867"><time>2023-02-26T06:28:07.370</time></trkpt><trkpt lat="55.8311400" lon="48.9482583"><time>2023-02-26T06:28:10.367</time></trkpt><trkpt lat="55.8311700" lon="48.9483183"><time>2023-02-26T06:28:14.387</time></trkpt><trkpt lat="55.8311933" lon="48.9484083"><time>2023-02-26T06:28:19.387</time></trkpt><trkpt lat="55.8312267" lon="48.9484883"><time>2023-02-26T06:28:24.317</time></trkpt><trkpt lat="55.8312267" lon="48.9484883"><time>2023-02-26T06:28:24.997</time></trkpt><trkpt lat="55.8312317" lon="48.9485950"><time>2023-02-26T06:28:30.337</time></trkpt><trkpt lat="55.8312283" lon="48.9486933"><time>2023-02-26T06:28:34.360</time></trkpt><trkpt lat="55.8312300" lon="48.9487767"><time>2023-02-26T06:28:38.363</time></trkpt><trkpt lat="55.8312733" lon="48.9488417"><time>2023-02-26T06:28:42.363</time></trkpt><trkpt lat="55.8313067" lon="48.9489133"><time>2023-02-26T06:28:46.363</time></trkpt><trkpt lat="55.8313433" lon="48.9489783"><time>2023-02-26T06:28:48.367</time></trkpt><trkpt lat="55.8313800" lon="48.9490317"><time>2023-02-26T06:28:50.363</time></trkpt><trkpt lat="55.8314283" lon="48.9490950"><time>2023-02-26T06:28:52.363</time></trkpt><trkpt lat="55.8314717" lon="48.9491650"><time>2023-02-26T06:28:54.367</time></trkpt><trkpt lat="55.8315000" lon="48.9492317"><time>2023-02-26T06:28:56.387</time></trkpt><trkpt lat="55.8315333" lon="48.9493100"><time>2023-02-26T06:28:58.407</time></trkpt><trkpt lat="55.8315333" lon="48.9493100"><time>2023-02-26T06:28:59.087</time></trkpt><trkpt lat="55.8315667" lon="48.9493950"><time>2023-02-26T06:29:02.863</time></trkpt><trkpt lat="55.8315967" lon="48.9493350"><time>2023-02-26T06:29:11.363</time></trkpt><trkpt lat="55.8316200" lon="48.9492467"><time>2023-02-26T06:29:16.360</time></trkpt><trkpt lat="55.8316400" lon="48.9491633"><time>2023-02-26T06:29:23.380</time></trkpt><trkpt lat="55.8316400" lon="48.9491633"><time>2023-02-26T06:29:24.057</time></trkpt><trkpt lat="55.8316467" lon="48.9490783"><time>2023-02-26T06:29:30.357</time></trkpt><trkpt lat="55.8316550" lon="48.9489867"><time>2023-02-26T06:29:36.360</time></trkpt><trkpt lat="55.8316033" lon="48.9489867"><time>2023-02-26T06:29:56.363</time></trkpt><trkpt lat="55.8315633" lon="48.9489383"><time>2023-02-26T06:30:03.370</time></trkpt><trkpt lat="55.8315483" lon="48.9488500"><time>2023-02-26T06:30:10.370</time></trkpt><trkpt lat="55.8315250" lon="48.9487783"><time>2023-02-26T06:30:15.393</time></trkpt><trkpt lat="55.8315200" lon="48.9486833"><time>2023-02-26T06:30:27.450</time></trkpt><trkpt lat="55.8314900" lon="48.9486117"><time>2023-02-26T06:30:34.383</time></trkpt><trkpt lat="55.8314533" lon="48.9485583"><time>2023-02-26T06:30:46.333</time></trkpt><trkpt lat="55.8314600" lon="48.9484683"><time>2023-02-26T06:30:52.357</time></trkpt><trkpt lat="55.8315017" lon="48.9484283"><time>2023-02-26T06:31:01.363</time></trkpt><trkpt lat="55.8315267" lon="48.9483567"><time>2023-02-26T06:31:15.377</time></trkpt><trkpt lat="55.8315267" lon="48.9483567"><time>2023-02-26T06:31:16.063</time></trkpt><trkpt lat="55.8315750" lon="48.9483417"><time>2023-02-26T06:31:26.353</time></trkpt><trkpt lat="55.8316017" lon="48.9482700"><time>2023-02-26T06:31:41.360</time></trkpt><trkpt lat="55.8316550" lon="48.9482683"><time>2023-02-26T06:31:49.393</time></trkpt><trkpt lat="55.8316550" lon="48.9482683"><time>2023-02-26T06:31:50.080</time></trkpt><trkpt lat="55.8317050" lon="48.9482817"><time>2023-02-26T06:32:06.363</time></trkpt><trkpt lat="55.8317517" lon="48.9482750"><time>2023-02-26T06:32:14.363</time></trkpt><trkpt lat="55.8317983" lon="48.9482983"><time>2023-02-26T06:32:25.357</time></trkpt><trkpt lat="55.8318100" lon="48.9482083"><time>2023-02-26T06:32:33.360</time></trkpt><trkpt lat="55.8318167" lon="48.9481100"><time>2023-02-26T06:32:37.367</time></trkpt><trkpt lat="55.8318333" lon="48.9480233"><time>2023-02-26T06:32:41.360</time></trkpt><trkpt lat="55.8318367" lon="48.9479433"><time>2023-02-26T06:32:45.330</time></trkpt><trkpt lat="55.8318417" lon="48.9478450"><time>2023-02-26T06:32:50.357</time></trkpt><trkpt lat="55.8318550" lon="48.9477483"><time>2023-02-26T06:32:54.363</time></trkpt><trkpt lat="55.8318700" lon="48.9476550"><time>2023-02-26T06:32:58.337</time></trkpt><trkpt lat="55.8318833" lon="48.9475750"><time>2023-02-26T06:33:07.370</time></trkpt><trkpt lat="55.8319100" lon="48.9474900"><time>2023-02-26T06:33:16.363</time></trkpt><trkpt lat="55.8319367" lon="48.9473800"><time>2023-02-26T06:33:20.373</time></trkpt><trkpt lat="55.8319350" lon="48.9472967"><time>2023-02-26T06:33:23.357</time></trkpt><trkpt lat="55.8318900" lon="48.9472900"><time>2023-02-26T06:33:29.367</time></trkpt><trkpt lat="55.8318567" lon="48.9472317"><time>2023-02-26T06:33:39.337</time></trkpt><trkpt lat="55.8318133" lon="48.9471900"><time>2023-02-26T06:33:47.370</time></trkpt><trkpt lat="55.8317733" lon="48.9471250"><time>2023-02-26T06:33:53.367</time></trkpt><trkpt lat="55.8317383" lon="48.9470583"><time>2023-02-26T06:34:05.373</time></trkpt><trkpt lat="55.8317000" lon="48.9469900"><time>2023-02-26T06:34:12.370</time></trkpt><trkpt lat="55.8316583" lon="48.9469600"><time>2023-02-26T06:34:18.367</time></trkpt><trkpt lat="55.8316167" lon="48.9469267"><time>2023-02-26T06:34:23.357</time></trkpt><trkpt lat="55.8315733" lon="48.9469600"><time>2023-02-26T06:34:29.360</time></trkpt><trkpt lat="55.8315383" lon="48.9470233"><time>2023-02-26T06:34:34.370</time></trkpt><trkpt lat="55.8315383" lon="48.9470233"><time>2023-02-26T06:34:35.573</time></trkpt><trkpt lat="55.8314850" lon="48.9470233"><time>2023-02-26T06:34:41.353</time></trkpt><trkpt lat="55.8314400" lon="48.9470150"><time>2023-02-26T06:34:43.353</time></trkpt><trkpt lat="55.8313917" lon="48.9470550"><time>2023-02-26T06:34:47.363</time></trkpt><trkpt lat="55.8313467" lon="48.9471233"><time>2023-02-26T06:34:51.360</time></trkpt><trkpt lat="55.8314083" lon="48.9470833"><time>2023-02-26T06:35:06.363</time></trkpt><trkpt lat="55.8314550" lon="48.9470517"><time>2023-02-26T06:35:08.360</time></trkpt><trkpt lat="55.8315000" lon="48.9470117"><time>2023-02-26T06:35:10.307</time></trkpt><trkpt lat="55.8315450" lon="48.9469433"><time>2023-02-26T06:35:12.327</time></trkpt><trkpt lat="55.8315650" lon="48.9469283"><time>2023-02-26T06:35:13.510</time></trkpt><trkpt lat="55.8316217" lon="48.9469050"><time>2023-02-26T06:35:15.837</time></trkpt><trkpt lat="55.8316833" lon="48.9468233"><time>2023-02-26T06:35:18.333</time></trkpt><trkpt lat="55.8317217" lon="48.9467600"><time>2023-02-26T06:35:20.363</time></trkpt><trkpt lat="55.8317700" lon="48.9467083"><time>2023-02-26T06:35:22.357</time></trkpt><trkpt lat="55.8318100" lon="48.9466517"><time>2023-02-26T06:35:24.353</time></trkpt><trkpt lat="55.8318467" lon="48.9466000"><time>2023-02-26T06:35:26.357</time></trkpt><trkpt lat="55.8318917" lon="48.9465617"><time>2023-02-26T06:35:30.297</time></trkpt><trkpt lat="55.8319417" lon="48.9465600"><time>2023-02-26T06:35:34.360</time></trkpt><trkpt lat="55.8319933" lon="48.9465583"><time>2023-02-26T06:35:38.377</time></trkpt><trkpt lat="55.8319933" lon="48.9465583"><time>2023-02-26T06:35:39.563</time></trkpt><trkpt lat="55.8320367" lon="48.9466250"><time>2023-02-26T06:35:46.353</time></trkpt><trkpt lat="55.8320717" lon="48.9467050"><time>2023-02-26T06:35:50.353</time></trkpt><trkpt lat="55.8321150" lon="48.9467617"><time>2023-02-26T06:35:56.353</time></trkpt><trkpt lat="55.8321700" lon="48.9467433"><time>2023-02-26T06:36:01.327</time></trkpt><trkpt lat="55.8321617" lon="48.9466550"><time>2023-02-26T06:36:08.360</time></trkpt><trkpt lat="55.8322367" lon="48.9465933"><time>2023-02-26T06:36:10.357</time></trkpt><trkpt lat="55.8322867" lon="48.9465767"><time>2023-02-26T06:36:12.360</time></trkpt><trkpt lat="55.8323650" lon="48.9465517"><time>2023-02-26T06:36:14.367</time></trkpt><trkpt lat="55.8324500" lon="48.9465333"><time>2023-02-26T06:36:16.360</time></trkpt><trkpt lat="55.8325033" lon="48.9465533"><time>2023-02-26T06:36:17.370</time></trkpt><trkpt lat="55.8325467" lon="48.9465850"><time>2023-02-26T06:36:18.410</time></trkpt><trkpt lat="55.8326067" lon="48.9466717"><time>2023-02-26T06:36:20.380</time></trkpt><trkpt lat="55.8326617" lon="48.9467567"><time>2023-02-26T06:36:22.373</time></trkpt><trkpt lat="55.8327067" lon="48.9468500"><time>2023-02-26T06:36:24.400</time></trkpt><trkpt lat="55.8327067" lon="48.9468500"><time>2023-02-26T06:36:26.313</time></trkpt><trkpt lat="55.8327567" lon="48.9468917"><time>2023-02-26T06:36:30.370</time></trkpt><trkpt lat="55.8327833" lon="48.9470383"><time>2023-02-26T06:36:32.363</time></trkpt><trkpt lat="55.8328167" lon="48.9471733"><time>2023-02-26T06:36:34.360</time></trkpt><trkpt lat="55.8328350" lon="48.9472483"><time>2023-02-26T06:36:36.377</time></trkpt><trkpt lat="55.8328533" lon="48.9473417"><time>2023-02-26T06:36:40.370</time></trkpt><trkpt lat="55.8328717" lon="48.9474350"><time>2023-02-26T06:36:44.367</time></trkpt><trkpt lat="55.8328933" lon="48.9475117"><time>2023-02-26T06:36:51.357</time></trkpt><trkpt lat="55.8328933" lon="48.9475950"><time>2023-02-26T06:36:54.333</time></trkpt><trkpt lat="55.8328917" lon="48.9476950"><time>2023-02-26T06:36:58.370</time></trkpt><trkpt lat="55.8328950" lon="48.9477433"><time>2023-02-26T06:37:32.570</time></trkpt><trkpt lat="55.8328867" lon="48.9477350"><time>2023-02-26T06:37:33.727</time></trkpt><trkpt lat="55.8329150" lon="48.9477817"><time>2023-02-26T06:37:35.427</time></trkpt><trkpt lat="55.8329350" lon="48.9477933"><time>2023-02-26T06:37:37.113</time></trkpt><trkpt lat="55.8330050" lon="48.9478300"><time>2023-02-26T06:37:38.317</time></trkpt><trkpt lat="55.8330533" lon="48.9478933"><time>2023-02-26T06:37:39.823</time></trkpt><trkpt lat="55.8331000" lon="48.9479717"><time>2023-02-26T06:37:41.317</time></trkpt><trkpt lat="55.8332183" lon="48.9480883"><time>2023-02-26T06:37:43.327</time></trkpt><trkpt lat="55.8332183" lon="48.9480883"><time>2023-02-26T06:37:43.347</time></trkpt><trkpt lat="55.8331600" lon="48.9480667"><time>2023-02-26T06:37:44.337</time></trkpt><trkpt lat="55.8331683" lon="48.9481550"><time>2023-02-26T06:37:46.033</time></trkpt><trkpt lat="55.8331583" lon="48.9479533"><time>2023-02-26T06:37:47.317</time></trkpt><trkpt lat="55.8332017" lon="48.9480317"><time>2023-02-26T06:37:47.823</time></trkpt><trkpt lat="55.8332450" lon="48.9479417"><time>2023-02-26T06:37:50.323</time></trkpt><trkpt lat="55.8332717" lon="48.9480183"><time>2023-02-26T06:37:51.317</time></trkpt><trkpt lat="55.8332383" lon="48.9478867"><time>2023-02-26T06:37:55.310</time></trkpt><trkpt lat="55.8332967" lon="48.9478567"><time>2023-02-26T06:37:57.357</time></trkpt><trkpt lat="55.8333433" lon="48.9478500"><time>2023-02-26T06:37:59.367</time></trkpt><trkpt lat="55.8333883" lon="48.9478850"><time>2023-02-26T06:38:01.360</time></trkpt><trkpt lat="55.8334383" lon="48.9479400"><time>2023-02-26T06:38:03.363</time></trkpt><trkpt lat="55.8334567" lon="48.9480217"><time>2023-02-26T06:38:06.360</time></trkpt><trkpt lat="55.8335117" lon="48.9480450"><time>2023-02-26T06:38:08.357</time></trkpt><trkpt lat="55.8335683" lon="48.9480883"><time>2023-02-26T06:38:10.353</time></trkpt><trkpt lat="55.8336217" lon="48.9481150"><time>2023-02-26T06:38:13.360</time></trkpt><trkpt lat="55.8336700" lon="48.9480867"><time>2023-02-26T06:38:15.360</time></trkpt><trkpt lat="55.8337217" lon="48.9480433"><time>2023-02-26T06:38:17.373</time></trkpt><trkpt lat="55.8337633" lon="48.9480117"><time>2023-02-26T06:38:20.380</time></trkpt><trkpt lat="55.8337983" lon="48.9479200"><time>2023-02-26T06:38:24.380</time></trkpt><trkpt lat="55.8338283" lon="48.9478517"><time>2023-02-26T06:38:29.440</time></trkpt><trkpt lat="55.8338467" lon="48.9477667"><time>2023-02-26T06:38:32.373</time></trkpt><trkpt lat="55.8338683" lon="48.9476883"><time>2023-02-26T06:38:35.343</time></trkpt><trkpt lat="55.8338750" lon="48.9476000"><time>2023-02-26T06:38:38.337</time></trkpt><trkpt lat="55.8338950" lon="48.9475133"><time>2023-02-26T06:38:41.400</time></trkpt><trkpt lat="55.8339317" lon="48.9474233"><time>2023-02-26T06:38:44.380</time></trkpt><trkpt lat="55.8339550" lon="48.9473350"><time>2023-02-26T06:38:48.377</time></trkpt><trkpt lat="55.8339700" lon="48.9472533"><time>2023-02-26T06:38:54.377</time></trkpt><trkpt lat="55.8354433" lon="48.9406050"><time>2023-02-26T06:43:52.117</time></trkpt><trkpt lat="55.8354433" lon="48.9406050"><time>2023-02-26T06:43:52.130</time></trkpt><trkpt lat="55.8354567" lon="48.9405900"><time>2023-02-26T06:43:53.313</time></trkpt><trkpt lat="55.8354567" lon="48.9406650"><time>2023-02-26T06:43:54.010</time></trkpt><trkpt lat="55.8354500" lon="48.9409150"><time>2023-02-26T06:43:55.297</time></trkpt><trkpt lat="55.8354183" lon="48.9409983"><time>2023-02-26T06:43:56.320</time></trkpt><trkpt lat="55.8354167" lon="48.9411350"><time>2023-02-26T06:43:57.843</time></trkpt><trkpt lat="55.8353517" lon="48.9411817"><time>2023-02-26T06:43:59.340</time></trkpt><trkpt lat="55.8353300" lon="48.9409650"><time>2023-02-26T06:44:00.340</time></trkpt><trkpt lat="55.8353667" lon="48.9408183"><time>2023-02-26T06:44:02.350</time></trkpt><trkpt lat="55.8353867" lon="48.9407083"><time>2023-02-26T06:44:06.343</time></trkpt><trkpt lat="55.8353783" lon="48.9406150"><time>2023-02-26T06:44:09.320</time></trkpt><trkpt lat="55.8353717" lon="48.9405217"><time>2023-02-26T06:44:17.403</time></trkpt><trkpt lat="55.8354133" lon="48.9402817"><time>2023-02-26T06:44:21.340</time></trkpt><trkpt lat="55.8354433" lon="48.9402083"><time>2023-02-26T06:44:23.427</time></trkpt><trkpt lat="55.8354667" lon="48.9401350"><time>2023-02-26T06:44:25.367</time></trkpt><trkpt lat="55.8354817" lon="48.9400500"><time>2023-02-26T06:44:29.387</time></trkpt><trkpt lat="55.8354900" lon="48.9399600"><time>2023-02-26T06:44:35.397</time></trkpt><trkpt lat="55.8355083" lon="48.9398750"><time>2023-02-26T06:44:39.363</time></trkpt><trkpt lat="55.8355183" lon="48.9397850"><time>2023-02-26T06:44:44.373</time></trkpt><trkpt lat="55.8355283" lon="48.9396950"><time>2023-02-26T06:44:49.357</time></trkpt><trkpt lat="55.8355550" lon="48.9396150"><time>2023-02-26T06:44:52.367</time></trkpt><trkpt lat="55.8383317" lon="48.9413833"><time>2023-02-26T06:49:04.627</time></trkpt><trkpt lat="55.8382767" lon="48.9413900"><time>2023-02-26T06:49:05.613</time></trkpt><trkpt lat="55.8382333" lon="48.9414133"><time>2023-02-26T06:49:06.633</time></trkpt><trkpt lat="55.8383050" lon="48.9413667"><time>2023-02-26T06:49:08.657</time></trkpt><trkpt lat="55.8383500" lon="48.9413200"><time>2023-02-26T06:49:10.630</time></trkpt><trkpt lat="55.8382933" lon="48.9413533"><time>2023-02-26T06:49:11.623</time></trkpt><trkpt lat="55.8383350" lon="48.9414150"><time>2023-02-26T06:49:12.637</time></trkpt><trkpt lat="55.8382867" lon="48.9414800"><time>2023-02-26T06:49:13.643</time></trkpt><trkpt lat="55.8382750" lon="48.9416000"><time>2023-02-26T06:49:14.647</time></trkpt><trkpt lat="55.8383200" lon="48.9416533"><time>2023-02-26T06:49:17.653</time></trkpt><trkpt lat="55.8382783" lon="48.9416050"><time>2023-02-26T06:49:27.320</time></trkpt><trkpt lat="55.8382383" lon="48.9415583"><time>2023-02-26T06:49:32.347</time></trkpt><trkpt lat="55.8381667" lon="48.9414583"><time>2023-02-26T06:49:35.320</time></trkpt><trkpt lat="55.8381183" lon="48.9414183"><time>2023-02-26T06:49:37.320</time></trkpt><trkpt lat="55.8402333" lon="48.9400667"><time>2023-02-26T07:07:28.537</time></trkpt><trkpt lat="55.8402267" lon="48.9400433"><time>2023-02-26T07:07:29.723</time></trkpt><trkpt lat="55.8402017" lon="48.9399583"><time>2023-02-26T07:07:30.723</time></trkpt><trkpt lat="55.8402217" lon="48.9400517"><time>2023-02-26T07:07:33.690</time></trkpt><trkpt lat="55.8402133" lon="48.9401433"><time>2023-02-26T07:07:38.710</time></trkpt><trkpt lat="55.8402400" lon="48.9402400"><time>2023-02-26T07:09:04.377</time></trkpt><trkpt lat="55.8403917" lon="48.9348233"><time>2023-02-26T07:15:28.773</time></trkpt><trkpt lat="55.8406150" lon="48.9343083"><time>2023-02-26T07:15:33.163</time></trkpt><trkpt lat="55.8405883" lon="48.9342250"><time>2023-02-26T07:15:34.157</time></trkpt><trkpt lat="55.8407650" lon="48.9344567"><time>2023-02-26T07:15:35.187</time></trkpt><trkpt lat="55.8408700" lon="48.9345017"><time>2023-02-26T07:15:36.187</time></trkpt><trkpt lat="55.8408567" lon="48.9344233"><time>2023-02-26T07:15:45.323</time></trkpt><trkpt lat="55.8408367" lon="48.9343417"><time>2023-02-26T07:15:48.357</time></trkpt><trkpt lat="55.8408350" lon="48.9342600"><time>2023-02-26T07:15:51.357</time></trkpt><trkpt lat="55.8408467" lon="48.9341800"><time>2023-02-26T07:15:55.367</time></trkpt><trkpt lat="55.8408583" lon="48.9340700"><time>2023-02-26T07:15:58.363</time></trkpt><trkpt lat="55.8408817" lon="48.9339983"><time>2023-02-26T07:16:02.367</time></trkpt><trkpt lat="55.8409100" lon="48.9339333"><time>2023-02-26T07:16:07.367</time></trkpt><trkpt lat="55.8409217" lon="48.9338467"><time>2023-02-26T07:16:12.367</time></trkpt><trkpt lat="55.8409217" lon="48.9337483"><time>2023-02-26T07:16:17.363</time></trkpt><trkpt lat="55.8409317" lon="48.9336633"><time>2023-02-26T07:16:23.367</time></trkpt><trkpt lat="55.8409317" lon="48.9335800"><time>2023-02-26T07:16:27.347</time></trkpt><trkpt lat="55.8356417" lon="48.9305983"><time>2023-02-26T07:23:20.297</time></trkpt><trkpt lat="55.8358233" lon="48.9307167"><time>2023-02-26T07:23:21.287</time></trkpt><trkpt lat="55.8362633" lon="48.9309967"><time>2023-02-26T07:23:22.290</time></trkpt><trkpt lat="55.8363333" lon="48.9310300"><time>2023-02-26T07:23:23.290</time></trkpt><trkpt lat="55.8362200" lon="48.9308733"><time>2023-02-26T07:23:25.337</time></trkpt><trkpt lat="55.8362750" lon="48.9307783"><time>2023-02-26T07:23:27.350</time></trkpt><trkpt lat="55.8363417" lon="48.9306183"><time>2023-02-26T07:23:28.360</time></trkpt><trkpt lat="55.8364183" lon="48.9305067"><time>2023-02-26T07:23:29.330</time></trkpt><trkpt lat="55.8364650" lon="48.9304450"><time>2023-02-26T07:23:30.360</time></trkpt><trkpt lat="55.8366900" lon="48.9302433"><time>2023-02-26T07:23:31.360</time></trkpt><trkpt lat="55.8367467" lon="48.9301917"><time>2023-02-26T07:23:32.367</time></trkpt><trkpt lat="55.8367250" lon="48.9301517"><time>2023-02-26T07:25:31.283</time></trkpt><trkpt lat="55.8367017" lon="48.9300800"><time>2023-02-26T07:25:31.777</time></trkpt><trkpt lat="55.8366633" lon="48.9300217"><time>2023-02-26T07:25:33.817</time></trkpt><trkpt lat="55.8366117" lon="48.9300083"><time>2023-02-26T07:25:36.837</time></trkpt><trkpt lat="55.8365500" lon="48.9299833"><time>2023-02-26T07:25:38.840</time></trkpt><trkpt lat="55.8364467" lon="48.9299183"><time>2023-02-26T07:25:40.837</time></trkpt><trkpt lat="55.8363683" lon="48.9298250"><time>2023-02-26T07:25:41.840</time></trkpt><trkpt lat="55.8362967" lon="48.9297650"><time>2023-02-26T07:25:42.833</time></trkpt><trkpt lat="55.8361917" lon="48.9297333"><time>2023-02-26T07:25:44.837</time></trkpt><trkpt lat="55.8361100" lon="48.9296650"><time>2023-02-26T07:25:46.837</time></trkpt><trkpt lat="55.8360683" lon="48.9296033"><time>2023-02-26T07:25:47.843</time></trkpt><trkpt lat="55.8360200" lon="48.9295400"><time>2023-02-26T07:25:48.843</time></trkpt><trkpt lat="55.8359683" lon="48.9294867"><time>2023-02-26T07:25:49.843</time></trkpt><trkpt lat="55.8359033" lon="48.9294433"><time>2023-02-26T07:25:52.363</time></trkpt><trkpt lat="55.8358450" lon="48.9293933"><time>2023-02-26T07:25:55.363</time></trkpt><trkpt lat="55.8358033" lon="48.9293617"><time>2023-02-26T07:25:56.353</time></trkpt><trkpt lat="55.8357350" lon="48.9293117"><time>2023-02-26T07:25:58.357</time></trkpt><trkpt lat="55.8356800" lon="48.9292767"><time>2023-02-26T07:26:00.357</time></trkpt><trkpt lat="55.8356267" lon="48.9292333"><time>2023-02-26T07:26:03.357</time></trkpt><trkpt lat="55.8355833" lon="48.9292083"><time>2023-02-26T07:26:05.350</time></trkpt><trkpt lat="55.8355383" lon="48.9291883"><time>2023-02-26T07:26:06.333</time></trkpt><trkpt lat="55.8354933" lon="48.9291700"><time>2023-02-26T07:26:08.353</time></trkpt><trkpt lat="55.8354400" lon="48.9291533"><time>2023-02-26T07:26:10.330</time></trkpt><trkpt lat="55.8353750" lon="48.9291633"><time>2023-02-26T07:26:11.357</time></trkpt><trkpt lat="55.8353150" lon="48.9291567"><time>2023-02-26T07:26:14.357</time></trkpt><trkpt lat="55.8352367" lon="48.9291600"><time>2023-02-26T07:26:16.353</time></trkpt><trkpt lat="55.8351783" lon="48.9291400"><time>2023-02-26T07:26:19.353</time></trkpt><trkpt lat="55.8350417" lon="48.9291467"><time>2023-02-26T07:26:22.367</time></trkpt><trkpt lat="55.8349683" lon="48.9291583"><time>2023-02-26T07:26:24.363</time></trkpt><trkpt lat="55.8349183" lon="48.9291800"><time>2023-02-26T07:26:28.327</time></trkpt><trkpt lat="55.8348733" lon="48.9291583"><time>2023-02-26T07:26:34.370</time></trkpt><trkpt lat="55.8348383" lon="48.9291083"><time>2023-02-26T07:26:37.370</time></trkpt><trkpt lat="55.8347833" lon="48.9290683"><time>2023-02-26T07:26:41.357</time></trkpt><trkpt lat="55.8347300" lon="48.9290183"><time>2023-02-26T07:26:45.357</time></trkpt><trkpt lat="55.8346817" lon="48.9289817"><time>2023-02-26T07:26:48.360</time></trkpt><trkpt lat="55.8346367" lon="48.9289433"><time>2023-02-26T07:26:51.360</time></trkpt><trkpt lat="55.8345933" lon="48.9289067"><time>2023-02-26T07:26:54.367</time></trkpt><trkpt lat="55.8345617" lon="48.9288500"><time>2023-02-26T07:26:58.367</time></trkpt><trkpt lat="55.8345183" lon="48.9288033"><time>2023-02-26T07:27:02.367</time></trkpt><trkpt lat="55.8344867" lon="48.9287067"><time>2023-02-26T07:27:05.367</time></trkpt><trkpt lat="55.8344500" lon="48.9286150"><time>2023-02-26T07:27:08.433</time></trkpt><trkpt lat="55.8344117" lon="48.9285350"><time>2023-02-26T07:27:11.377</time></trkpt><trkpt lat="55.8343783" lon="48.9284583"><time>2023-02-26T07:27:14.393</time></trkpt><trkpt lat="55.8343367" lon="48.9283817"><time>2023-02-26T07:27:17.367</time></trkpt><trkpt lat="55.8342933" lon="48.9283233"><time>2023-02-26T07:27:20.433</time></trkpt><trkpt lat="55.8342483" lon="48.9282767"><time>2023-02-26T07:27:23.367</time></trkpt><trkpt lat="55.8342133" lon="48.9282267"><time>2023-02-26T07:27:25.363</time></trkpt><trkpt lat="55.8341750" lon="48.9281733"><time>2023-02-26T07:27:27.370</time></trkpt><trkpt lat="55.8341350" lon="48.9281283"><time>2023-02-26T07:27:29.367</time></trkpt><trkpt lat="55.8340950" lon="48.9280883"><time>2023-02-26T07:27:31.367</time></trkpt><trkpt lat="55.8340550" lon="48.9280317"><time>2023-02-26T07:27:33.367</time></trkpt><trkpt lat="55.8340100" lon="48.9279650"><time>2023-02-26T07:27:35.367</time></trkpt><trkpt lat="55.8339633" lon="48.9279033"><time>2023-02-26T07:27:37.367</time></trkpt><trkpt lat="55.8339167" lon="48.9278350"><time>2023-02-26T07:27:39.370</time></trkpt><trkpt lat="55.8338767" lon="48.9277900"><time>2023-02-26T07:27:41.360</time></trkpt><trkpt lat="55.8338350" lon="48.9277367"><time>2023-02-26T07:27:43.377</time></trkpt><trkpt lat="55.8337933" lon="48.9276983"><time>2023-02-26T07:27:45.373</time></trkpt><trkpt lat="55.8337367" lon="48.9276300"><time>2023-02-26T07:27:48.373</time></trkpt><trkpt lat="55.8336933" lon="48.9275900"><time>2023-02-26T07:27:50.437</time></trkpt><trkpt lat="55.8336567" lon="48.9275100"><time>2023-02-26T07:27:51.380</time></trkpt><trkpt lat="55.8335983" lon="48.9274883"><time>2023-02-26T07:27:54.370</time></trkpt><trkpt lat="55.8335550" lon="48.9274567"><time>2023-02-26T07:27:56.397</time></trkpt><trkpt lat="55.8335133" lon="48.9274100"><time>2023-02-26T07:28:16.403</time></trkpt><trkpt lat="55.8334783" lon="48.9272983"><time>2023-02-26T07:28:17.367</time></trkpt><trkpt lat="55.8334083" lon="48.9270817"><time>2023-02-26T07:28:18.367</time></trkpt><trkpt lat="55.8333600" lon="48.9270300"><time>2023-02-26T07:28:19.907</time></trkpt><trkpt lat="55.8333617" lon="48.9269333"><time>2023-02-26T07:28:21.927</time></trkpt><trkpt lat="55.8333433" lon="48.9267667"><time>2023-02-26T07:28:23.933</time></trkpt><trkpt lat="55.8333317" lon="48.9266750"><time>2023-02-26T07:28:24.947</time></trkpt><trkpt lat="55.8333283" lon="48.9265900"><time>2023-02-26T07:28:25.920</time></trkpt><trkpt lat="55.8333100" lon="48.9264633"><time>2023-02-26T07:28:28.377</time></trkpt><trkpt lat="55.8332900" lon="48.9263433"><time>2023-02-26T07:28:30.377</time></trkpt><trkpt lat="55.8332633" lon="48.9262400"><time>2023-02-26T07:28:32.367</time></trkpt><trkpt lat="55.8332333" lon="48.9261483"><time>2023-02-26T07:28:34.373</time></trkpt><trkpt lat="55.8332000" lon="48.9260817"><time>2023-02-26T07:28:36.447</time></trkpt><trkpt lat="55.8332000" lon="48.9260817"><time>2023-02-26T07:28:37.337</time></trkpt><trkpt lat="55.8331550" lon="48.9260367"><time>2023-02-26T07:28:42.367</time></trkpt><trkpt lat="55.8330850" lon="48.9260100"><time>2023-02-26T07:28:44.363</time></trkpt><trkpt lat="55.8330217" lon="48.9259383"><time>2023-02-26T07:28:46.353</time></trkpt><trkpt lat="55.8329650" lon="48.9258900"><time>2023-02-26T07:28:49.367</time></trkpt><trkpt lat="55.8329183" lon="48.9258767"><time>2023-02-26T07:28:51.367</time></trkpt><trkpt lat="55.8328633" lon="48.9258617"><time>2023-02-26T07:28:54.340</time></trkpt><trkpt lat="55.8328633" lon="48.9258617"><time>2023-02-26T07:28:55.160</time></trkpt><trkpt lat="55.8328183" lon="48.9258033"><time>2023-02-26T07:29:00.347</time></trkpt><trkpt lat="55.8327733" lon="48.9257417"><time>2023-02-26T07:29:02.440</time></trkpt><trkpt lat="55.8327733" lon="48.9257417"><time>2023-02-26T07:29:03.830</time></trkpt><trkpt lat="55.8327900" lon="48.9256633"><time>2023-02-26T07:29:11.367</time></trkpt><trkpt lat="55.8327950" lon="48.9257817"><time>2023-02-26T07:29:23.363</time></trkpt><trkpt lat="55.8327933" lon="48.9257800"><time>2023-02-26T07:29:24.537</time></trkpt><trkpt lat="55.8328417" lon="48.9257883"><time>2023-02-26T07:29:50.370</time></trkpt><trkpt lat="55.8328417" lon="48.9257883"><time>2023-02-26T07:29:51.053</time></trkpt><trkpt lat="55.8328483" lon="48.9258683"><time>2023-02-26T07:30:03.363</time></trkpt><trkpt lat="55.8328483" lon="48.9258700"><time>2023-02-26T07:30:04.020</time></trkpt><trkpt lat="55.8328033" lon="48.9258567"><time>2023-02-26T07:30:29.370</time></trkpt><trkpt lat="55.8327950" lon="48.9259417"><time>2023-02-26T07:30:45.377</time></trkpt><trkpt lat="55.8327867" lon="48.9260617"><time>2023-02-26T07:31:03.380</time></trkpt><trkpt lat="55.8306450" lon="48.9339300"><time>2023-02-26T07:33:58.337</time></trkpt><trkpt lat="55.8308300" lon="48.9342717"><time>2023-02-26T07:33:59.503</time></trkpt><trkpt lat="55.8308833" lon="48.9339383"><time>2023-02-26T07:34:00.710</time></trkpt><trkpt lat="55.8309817" lon="48.9337100"><time>2023-02-26T07:34:01.407</time></trkpt><trkpt lat="55.8310700" lon="48.9337567"><time>2023-02-26T07:34:01.880</time></trkpt><trkpt lat="55.8312700" lon="48.9342233"><time>2023-02-26T07:34:02.800</time></trkpt><trkpt lat="55.8312433" lon="48.9340833"><time>2023-02-26T07:34:03.473</time></trkpt><trkpt lat="55.8313017" lon="48.9342033"><time>2023-02-26T07:34:04.787</time></trkpt><trkpt lat="55.8312683" lon="48.9343267"><time>2023-02-26T07:34:07.293</time></trkpt><trkpt lat="55.8312683" lon="48.9343267"><time>2023-02-26T07:34:07.313</time></trkpt><trkpt lat="55.8313950" lon="48.9343733"><time>2023-02-26T07:34:08.290</time></trkpt><trkpt lat="55.8314500" lon="48.9344350"><time>2023-02-26T07:34:09.467</time></trkpt><trkpt lat="55.8314900" lon="48.9344717"><time>2023-02-26T07:34:09.950</time></trkpt><trkpt lat="55.8315500" lon="48.9345133"><time>2023-02-26T07:34:12.793</time></trkpt><trkpt lat="55.8315317" lon="48.9344217"><time>2023-02-26T07:34:14.287</time></trkpt><trkpt lat="55.8313900" lon="48.9344200"><time>2023-02-26T07:34:16.297</time></trkpt><trkpt lat="55.8313333" lon="48.9343833"><time>2023-02-26T07:34:20.277</time></trkpt><trkpt lat="55.8312583" lon="48.9343183"><time>2023-02-26T07:34:22.240</time></trkpt><trkpt lat="55.8313033" lon="48.9343117"><time>2023-02-26T07:34:39.347</time></trkpt><trkpt lat="55.8313233" lon="48.9343900"><time>2023-02-26T07:34:46.260</time></trkpt><trkpt lat="55.8313133" lon="48.9344850"><time>2023-02-26T07:34:47.357</time></trkpt><trkpt lat="55.8313083" lon="48.9345683"><time>2023-02-26T07:34:53.377</time></trkpt><trkpt lat="55.8313083" lon="48.9346550"><time>2023-02-26T07:35:00.377</time></trkpt><trkpt lat="55.8312950" lon="48.9347433"><time>2023-02-26T07:35:04.380</time></trkpt><trkpt lat="55.8312867" lon="48.9348250"><time>2023-02-26T07:35:06.380</time></trkpt><trkpt lat="55.8312783" lon="48.9349500"><time>2023-02-26T07:35:08.373</time></trkpt><trkpt lat="55.8312800" lon="48.9350667"><time>2023-02-26T07:35:10.370</time></trkpt><trkpt lat="55.8296883" lon="48.9383583"><time>2023-02-26T07:38:07.037</time></trkpt><trkpt lat="55.8298883" lon="48.9382300"><time>2023-02-26T07:38:08.717</time></trkpt><trkpt lat="55.8298817" lon="48.9381500"><time>2023-02-26T07:38:09.847</time></trkpt><trkpt lat="55.8298733" lon="48.9380633"><time>2023-02-26T07:38:12.347</time></trkpt><trkpt lat="55.8298417" lon="48.9381250"><time>2023-02-26T07:38:36.360</time></trkpt><trkpt lat="55.8298250" lon="48.9382000"><time>2023-02-26T07:38:40.360</time></trkpt><trkpt lat="55.8298067" lon="48.9382750"><time>2023-02-26T07:38:43.360</time></trkpt><trkpt lat="55.8297717" lon="48.9383633"><time>2023-02-26T07:38:47.310</time></trkpt><trkpt lat="55.8297367" lon="48.9384183"><time>2023-02-26T07:38:50.370</time></trkpt><trkpt lat="55.8296917" lon="48.9384783"><time>2023-02-26T07:38:55.367</time></trkpt><trkpt lat="55.8296500" lon="48.9385417"><time>2023-02-26T07:38:59.367</time></trkpt><trkpt lat="55.8296183" lon="48.9386233"><time>2023-02-26T07:39:02.397</time></trkpt><trkpt lat="55.8295900" lon="48.9386917"><time>2023-02-26T07:39:04.370</time></trkpt><trkpt lat="55.8295583" lon="48.9387900"><time>2023-02-26T07:39:07.367</time></trkpt><trkpt lat="55.8295267" lon="48.9388583"><time>2023-02-26T07:39:09.363</time></trkpt><trkpt lat="55.8294883" lon="48.9389350"><time>2023-02-26T07:39:11.367</time></trkpt><trkpt lat="55.8294500" lon="48.9390100"><time>2023-02-26T07:39:13.367</time></trkpt><trkpt lat="55.8294100" lon="48.9390833"><time>2023-02-26T07:39:15.370</time></trkpt><trkpt lat="55.8293733" lon="48.9391533"><time>2023-02-26T07:39:17.370</time></trkpt><trkpt lat="55.8293433" lon="48.9392317"><time>2023-02-26T07:39:19.373</time></trkpt><trkpt lat="55.8293083" lon="48.9393333"><time>2023-02-26T07:39:22.327</time></trkpt><trkpt lat="55.8292717" lon="48.9394333"><time>2023-02-26T07:39:25.313</time></trkpt><trkpt lat="55.8292433" lon="48.9395250"><time>2023-02-26T07:39:28.367</time></trkpt><trkpt lat="55.8292100" lon="48.9395833"><time>2023-02-26T07:39:31.430</time></trkpt><trkpt lat="55.8291667" lon="48.9396283"><time>2023-02-26T07:39:34.373</time></trkpt><trkpt lat="55.8291650" lon="48.9396250"><time>2023-02-26T07:39:36.340</time></trkpt><trkpt lat="55.8291183" lon="48.9395900"><time>2023-02-26T07:39:40.337</time></trkpt><trkpt lat="55.8290717" lon="48.9395550"><time>2023-02-26T07:39:43.350</time></trkpt><trkpt lat="55.8290283" lon="48.9395250"><time>2023-02-26T07:39:46.347</time></trkpt><trkpt lat="55.8289817" lon="48.9394817"><time>2023-02-26T07:39:49.350</time></trkpt><trkpt lat="55.8289433" lon="48.9394383"><time>2023-02-26T07:39:52.357</time></trkpt><trkpt lat="55.8289083" lon="48.9393767"><time>2023-02-26T07:39:58.360</time></trkpt><trkpt lat="55.8288717" lon="48.9393300"><time>2023-02-26T07:40:03.360</time></trkpt><trkpt lat="55.8288250" lon="48.9393050"><time>2023-02-26T07:40:07.370</time></trkpt><trkpt lat="55.8287800" lon="48.9392800"><time>2023-02-26T07:40:11.357</time></trkpt><trkpt lat="55.8287383" lon="48.9392367"><time>2023-02-26T07:40:14.370</time></trkpt><trkpt lat="55.8287383" lon="48.9392367"><time>2023-02-26T07:40:16.060</time></trkpt><trkpt lat="55.8286850" lon="48.9392250"><time>2023-02-26T07:40:21.353</time></trkpt><trkpt lat="55.8286400" lon="48.9392083"><time>2023-02-26T07:40:24.333</time></trkpt><trkpt lat="55.8285867" lon="48.9391700"><time>2023-02-26T07:40:27.357</time></trkpt><trkpt lat="55.8285500" lon="48.9391050"><time>2023-02-26T07:40:29.353</time></trkpt><trkpt lat="55.8285117" lon="48.9390467"><time>2023-02-26T07:40:32.373</time></trkpt><trkpt lat="55.8285117" lon="48.9390467"><time>2023-02-26T07:40:32.397</time></trkpt><trkpt lat="55.8284683" lon="48.9390217"><time>2023-02-26T07:40:39.387</time></trkpt><trkpt lat="55.8284700" lon="48.9390283"><time>2023-02-26T07:40:41.780</time></trkpt><trkpt lat="55.8284800" lon="48.9389450"><time>2023-02-26T07:40:52.360</time></trkpt><trkpt lat="55.8285283" lon="48.9389183"><time>2023-02-26T07:40:56.363</time></trkpt><trkpt lat="55.8285633" lon="48.9389783"><time>2023-02-26T07:40:59.360</time></trkpt><trkpt lat="55.8286000" lon="48.9390550"><time>2023-02-26T07:41:04.360</time></trkpt><trkpt lat="55.8286383" lon="48.9391283"><time>2023-02-26T07:41:07.370</time></trkpt><trkpt lat="55.8286750" lon="48.9391850"><time>2023-02-26T07:41:10.357</time></trkpt><trkpt lat="55.8287050" lon="48.9392550"><time>2023-02-26T07:41:13.357</time></trkpt><trkpt lat="55.8287450" lon="48.9393167"><time>2023-02-26T07:41:18.363</time></trkpt><trkpt lat="55.8287867" lon="48.9393550"><time>2023-02-26T07:41:22.370</time></trkpt><trkpt lat="55.8288333" lon="48.9393817"><time>2023-02-26T07:41:27.380</time></trkpt><trkpt lat="55.8288700" lon="48.9394067"><time>2023-02-26T07:42:51.833</time></trkpt><trkpt lat="55.8289533" lon="48.9394750"><time>2023-02-26T07:42:53.330</time></trkpt><trkpt lat="55.8290450" lon="48.9395233"><time>2023-02-26T07:42:54.380</time></trkpt><trkpt lat="55.8291283" lon="48.9395717"><time>2023-02-26T07:42:55.383</time></trkpt><trkpt lat="55.8291933" lon="48.9396367"><time>2023-02-26T07:42:56.367</time></trkpt><trkpt lat="55.8292200" lon="48.9397050"><time>2023-02-26T07:42:57.380</time></trkpt><trkpt lat="55.8291667" lon="48.9396983"><time>2023-02-26T07:43:03.397</time></trkpt><trkpt lat="55.8290483" lon="48.9396983"><time>2023-02-26T07:43:04.400</time></trkpt><trkpt lat="55.8290967" lon="48.9396717"><time>2023-02-26T07:43:20.367</time></trkpt><trkpt lat="55.8291400" lon="48.9396983"><time>2023-02-26T07:43:24.367</time></trkpt><trkpt lat="55.8291850" lon="48.9397167"><time>2023-02-26T07:43:28.363</time></trkpt><trkpt lat="55.8292317" lon="48.9397300"><time>2023-02-26T07:43:32.360</time></trkpt><trkpt lat="55.8292733" lon="48.9397883"><time>2023-02-26T07:43:37.363</time></trkpt><trkpt lat="55.8293000" lon="48.9398550"><time>2023-02-26T07:43:39.367</time></trkpt><trkpt lat="55.8293250" lon="48.9399367"><time>2023-02-26T07:43:41.380</time></trkpt><trkpt lat="55.8293667" lon="48.9400433"><time>2023-02-26T07:43:43.370</time></trkpt><trkpt lat="55.8294050" lon="48.9401750"><time>2023-02-26T07:43:45.357</time></trkpt><trkpt lat="55.8294667" lon="48.9402300"><time>2023-02-26T07:43:48.367</time></trkpt><trkpt lat="55.8295100" lon="48.9402533"><time>2023-02-26T07:43:50.360</time></trkpt><trkpt lat="55.8295650" lon="48.9402383"><time>2023-02-26T07:43:54.317</time></trkpt><trkpt lat="55.8295883" lon="48.9403133"><time>2023-02-26T07:44:01.373</time></trkpt><trkpt lat="55.8295717" lon="48.9403967"><time>2023-02-26T07:44:10.373</time></trkpt><trkpt lat="55.8298217" lon="48.9498283"><time>2023-02-26T07:49:36.507</time></trkpt><trkpt lat="55.8298300" lon="48.9499133"><time>2023-02-26T07:49:38.023</time></trkpt><trkpt lat="55.8298600" lon="48.9499983"><time>2023-02-26T07:49:41.050</time></trkpt><trkpt lat="55.8299200" lon="48.9500783"><time>2023-02-26T07:49:44.037</time></trkpt><trkpt lat="55.8299567" lon="48.9501583"><time>2023-02-26T07:49:48</time></trkpt><trkpt lat="55.8300083" lon="48.9502300"><time>2023-02-26T07:49:50.997</time></trkpt><trkpt lat="55.8300417" lon="48.9502850"><time>2023-02-26T07:49:54</time></trkpt><trkpt lat="55.8300717" lon="48.9503450"><time>2023-02-26T07:49:58.057</time></trkpt><trkpt lat="55.8300967" lon="48.9504183"><time>2023-02-26T07:50:05.320</time></trkpt><trkpt lat="55.8301350" lon="48.9504717"><time>2023-02-26T07:50:10.317</time></trkpt><trkpt lat="55.8301650" lon="48.9505433"><time>2023-02-26T07:50:15.340</time></trkpt><trkpt lat="55.8301833" lon="48.9506217"><time>2023-02-26T07:50:19.337</time></trkpt><trkpt lat="55.8302133" lon="48.9506933"><time>2023-02-26T07:50:23.357</time></trkpt><trkpt lat="55.8302350" lon="48.9507767"><time>2023-02-26T07:50:27.353</time></trkpt><trkpt lat="55.8302217" lon="48.9508617"><time>2023-02-26T07:50:30.300</time></trkpt><trkpt lat="55.8302150" lon="48.9509650"><time>2023-02-26T07:50:34.337</time></trkpt><trkpt lat="55.8302233" lon="48.9510500"><time>2023-02-26T07:50:37.370</time></trkpt><trkpt lat="55.8335717" lon="48.9622833"><time>2023-02-26T08:01:03.783</time></trkpt><trkpt lat="55.8335650" lon="48.9623250"><time>2023-02-26T08:01:04.490</time></trkpt><trkpt lat="55.8335417" lon="48.9624500"><time>2023-02-26T08:01:04.977</time></trkpt></trkseg></trk></gpx>